PWSweather.com
Personal Weather Stations
Station Observations
GRD01
Warsaw, LesznoPL 05-084

WarsawLesznoPL 05-084

Lat: 52.257404, Lon: 20.564847

Elevation: 298

Station Type: WH3080

http://pogoda.kampinos.waw.pl

High Low Average
Temperature 37.8°F3.2°F 30.4°F-0.9°F 33.5°F0.8°F
Dew Point 28.3°F-2.1°F 19.7°F-6.8°F 24.5°F-4.2°F
Winds 17.4 mph NNW28.0 mph NNW 0.7 mph 1.1 mph 5.0 mph 8.0 mph
Wind Gusts 22.1 mph35.6 mph 3.1 mph5.0 mph 8.8 mph14.2 mph
Humidity 80% 51% 70%
Pressure 29.83 in1010.20 in 29.67 in1004.70 in -
Precipitation 0.00 in0.00 in - -
Hour Temp Dew Point Humidity Winds Wind Gusts Pressure Precip Precip Rate Daily Precip Total
12:00 AM 33.8°F1.0°C 28.3°F-2.1°C 80% 2.2 mph NW3.5 kmh NW 4.5 mph7.2 kmh 29.68 in1005.1 mb 0.00 in0.0 mm 0.00 in0.0 mm 0.00 in0.0 mm
12:15 AM 33.6°F0.9°C 28.1°F-2.2°C 80% 3.1 mph N5.0 kmh N 5.4 mph8.7 kmh 29.67 in1004.7 mb 0.00 in0.0 mm 0.00 in0.0 mm 0.00 in0.0 mm
12:30 AM 33.6°F0.9°C 28.1°F-2.2°C 80% 2.2 mph NW3.5 kmh NW 4.5 mph7.2 kmh 29.68 in1005.1 mb 0.00 in0.0 mm 0.00 in0.0 mm 0.00 in0.0 mm
12:45 AM 33.6°F0.9°C 28.1°F-2.2°C 80% 3.1 mph NW5.0 kmh NW 5.4 mph8.7 kmh 29.68 in1005.1 mb 0.00 in0.0 mm 0.00 in0.0 mm 0.00 in0.0 mm
01:00 AM 33.6°F0.9°C 28.1°F-2.2°C 80% 3.8 mph NW6.1 kmh NW 6.0 mph9.7 kmh 29.68 in1005.1 mb 0.00 in0.0 mm 0.00 in0.0 mm 0.00 in0.0 mm
01:15 AM 33.4°F0.8°C 27.9°F-2.3°C 80% 5.4 mph NW8.7 kmh NW 6.0 mph9.7 kmh 29.69 in1005.4 mb 0.00 in0.0 mm 0.00 in0.0 mm 0.00 in0.0 mm
01:30 AM 33.4°F0.8°C 27.9°F-2.3°C 80% 2.2 mph WNW3.5 kmh WNW 5.4 mph8.7 kmh 29.68 in1005.1 mb 0.00 in0.0 mm 0.00 in0.0 mm 0.00 in0.0 mm
01:45 AM 33.4°F0.8°C 27.9°F-2.3°C 80% 3.1 mph NNW5.0 kmh NNW 6.0 mph9.7 kmh 29.69 in1005.4 mb 0.00 in0.0 mm 0.00 in0.0 mm 0.00 in0.0 mm
02:00 AM 33.4°F0.8°C 27.9°F-2.3°C 80% 3.8 mph NNW6.1 kmh NNW 4.5 mph7.2 kmh 29.69 in1005.4 mb 0.00 in0.0 mm 0.00 in0.0 mm 0.00 in0.0 mm
02:15 AM 33.6°F0.9°C 28.1°F-2.2°C 80% 3.8 mph NW6.1 kmh NW 7.6 mph12.2 kmh 29.69 in1005.4 mb 0.00 in0.0 mm 0.00 in0.0 mm 0.00 in0.0 mm
02:30 AM 33.6°F0.9°C 28.1°F-2.2°C 80% 5.4 mph NW8.7 kmh NW 8.3 mph13.4 kmh 29.69 in1005.4 mb 0.00 in0.0 mm 0.00 in0.0 mm 0.00 in0.0 mm
02:45 AM 33.6°F0.9°C 28.1°F-2.2°C 80% 3.8 mph NW6.1 kmh NW 9.2 mph14.8 kmh 29.69 in1005.4 mb 0.00 in0.0 mm 0.00 in0.0 mm 0.00 in0.0 mm
03:00 AM 33.6°F0.9°C 28.1°F-2.2°C 80% 3.8 mph NW6.1 kmh NW 7.6 mph12.2 kmh 29.70 in1005.8 mb 0.00 in0.0 mm 0.00 in0.0 mm 0.00 in0.0 mm
03:15 AM 33.6°F0.9°C 28.1°F-2.2°C 80% 6.0 mph NW9.7 kmh NW 13.0 mph20.9 kmh 29.70 in1005.8 mb 0.00 in0.0 mm 0.00 in0.0 mm 0.00 in0.0 mm
03:30 AM 33.6°F0.9°C 28.1°F-2.2°C 80% 5.4 mph NW8.7 kmh NW 9.8 mph15.8 kmh 29.70 in1005.8 mb 0.00 in0.0 mm 0.00 in0.0 mm 0.00 in0.0 mm
03:45 AM 33.6°F0.9°C 28.1°F-2.2°C 80% 6.0 mph N9.7 kmh N 9.8 mph15.8 kmh 29.69 in1005.4 mb 0.00 in0.0 mm 0.00 in0.0 mm 0.00 in0.0 mm
04:00 AM 33.8°F1.0°C 28.3°F-2.1°C 80% 5.4 mph N8.7 kmh N 10.7 mph17.2 kmh 29.70 in1005.8 mb 0.00 in0.0 mm 0.00 in0.0 mm 0.00 in0.0 mm
04:15 AM 33.8°F1.0°C 28.3°F-2.1°C 80% 7.6 mph N12.2 kmh N 13.0 mph20.9 kmh 29.70 in1005.8 mb 0.00 in0.0 mm 0.00 in0.0 mm 0.00 in0.0 mm
04:30 AM 33.4°F0.8°C 27.6°F-2.4°C 79% 6.0 mph N9.7 kmh N 9.8 mph15.8 kmh 29.70 in1005.8 mb 0.00 in0.0 mm 0.00 in0.0 mm 0.00 in0.0 mm
04:45 AM 33.4°F0.8°C 27.3°F-2.6°C 78% 3.8 mph N6.1 kmh N 8.3 mph13.4 kmh 29.71 in1006.1 mb 0.00 in0.0 mm 0.00 in0.0 mm 0.00 in0.0 mm
05:00 AM 33.3°F0.7°C 27.1°F-2.7°C 78% 3.1 mph N5.0 kmh N 8.3 mph13.4 kmh 29.71 in1006.1 mb 0.00 in0.0 mm 0.00 in0.0 mm 0.00 in0.0 mm
05:15 AM 32.9°F0.5°C 26.8°F-2.9°C 78% 3.1 mph N5.0 kmh N 5.4 mph8.7 kmh 29.72 in1006.4 mb 0.00 in0.0 mm 0.00 in0.0 mm 0.00 in0.0 mm
05:30 AM 32.2°F0.1°C 25.8°F-3.4°C 77% 3.8 mph N6.1 kmh N 4.5 mph7.2 kmh 29.72 in1006.4 mb 0.00 in0.0 mm 0.00 in0.0 mm 0.00 in0.0 mm
05:45 AM 31.8°F-0.1°C 25.4°F-3.7°C 77% 0.7 mph NW1.1 kmh NW 3.8 mph6.1 kmh 29.73 in1006.8 mb 0.00 in0.0 mm 0.00 in0.0 mm 0.00 in0.0 mm
06:00 AM 31.8°F-0.1°C 25.7°F-3.5°C 78% 3.8 mph NW6.1 kmh NW 5.4 mph8.7 kmh 29.73 in1006.8 mb 0.00 in0.0 mm 0.00 in0.0 mm 0.00 in0.0 mm
06:15 AM 31.8°F-0.1°C 26.0°F-3.3°C 79% 3.8 mph NW6.1 kmh NW 5.4 mph8.7 kmh 29.74 in1007.1 mb 0.00 in0.0 mm 0.00 in0.0 mm 0.00 in0.0 mm
06:30 AM 31.6°F-0.2°C 25.9°F-3.4°C 79% 2.2 mph NW3.5 kmh NW 5.4 mph8.7 kmh 29.74 in1007.1 mb 0.00 in0.0 mm 0.00 in0.0 mm 0.00 in0.0 mm
06:45 AM 31.1°F-0.5°C 25.0°F-3.9°C 78% 2.2 mph NW3.5 kmh NW 6.0 mph9.7 kmh 29.75 in1007.5 mb 0.00 in0.0 mm 0.00 in0.0 mm 0.00 in0.0 mm
07:00 AM 30.7°F-0.7°C 24.7°F-4.1°C 78% 1.6 mph NNW2.6 kmh NNW 3.8 mph6.1 kmh 29.75 in1007.5 mb 0.00 in0.0 mm 0.00 in0.0 mm 0.00 in0.0 mm
07:15 AM 30.6°F-0.8°C 24.5°F-4.2°C 78% 3.1 mph NW5.0 kmh NW 4.5 mph7.2 kmh 29.76 in1007.8 mb 0.00 in0.0 mm 0.00 in0.0 mm 0.00 in0.0 mm
07:30 AM 30.4°F-0.9°C 24.3°F-4.3°C 78% 2.2 mph NW3.5 kmh NW 4.5 mph7.2 kmh 29.75 in1007.5 mb 0.00 in0.0 mm 0.00 in0.0 mm 0.00 in0.0 mm
07:45 AM 30.4°F-0.9°C 24.6°F-4.1°C 79% 2.2 mph NW3.5 kmh NW 4.5 mph7.2 kmh 29.76 in1007.8 mb 0.00 in0.0 mm 0.00 in0.0 mm 0.00 in0.0 mm
08:00 AM 30.6°F-0.8°C 24.8°F-4.0°C 79% 3.1 mph NW5.0 kmh NW 6.9 mph11.1 kmh 29.76 in1007.8 mb 0.00 in0.0 mm 0.00 in0.0 mm 0.00 in0.0 mm
08:15 AM 30.9°F-0.6°C 25.5°F-3.6°C 80% 3.8 mph NW6.1 kmh NW 10.7 mph17.2 kmh 29.77 in1008.1 mb 0.00 in0.0 mm 0.00 in0.0 mm 0.00 in0.0 mm
08:30 AM 31.6°F-0.2°C 26.2°F-3.2°C 80% 3.1 mph NW5.0 kmh NW 9.8 mph15.8 kmh 29.77 in1008.1 mb 0.00 in0.0 mm 0.00 in0.0 mm 0.00 in0.0 mm
08:45 AM 32.4°F0.2°C 26.9°F-2.8°C 80% 6.0 mph NW9.7 kmh NW 13.0 mph20.9 kmh 29.76 in1007.8 mb 0.00 in0.0 mm 0.00 in0.0 mm 0.00 in0.0 mm
09:00 AM 33.1°F0.6°C 27.6°F-2.4°C 80% 7.6 mph NW12.2 kmh NW 9.8 mph15.8 kmh 29.76 in1007.8 mb 0.00 in0.0 mm 0.00 in0.0 mm 0.00 in0.0 mm
09:15 AM 33.6°F0.9°C 27.2°F-2.7°C 77% 8.3 mph NNW13.4 kmh NNW 12.1 mph19.5 kmh 29.77 in1008.1 mb 0.00 in0.0 mm 0.00 in0.0 mm 0.00 in0.0 mm
09:30 AM 34.2°F1.2°C 26.4°F-3.1°C 73% 10.7 mph NW17.2 kmh NW 14.5 mph23.3 kmh 29.77 in1008.1 mb 0.00 in0.0 mm 0.00 in0.0 mm 0.00 in0.0 mm
09:45 AM 34.7°F1.5°C 26.3°F-3.2°C 71% 6.9 mph NNW11.1 kmh NNW 13.0 mph20.9 kmh 29.77 in1008.1 mb 0.00 in0.0 mm 0.00 in0.0 mm 0.00 in0.0 mm
10:00 AM 34.7°F1.5°C 25.2°F-3.8°C 68% 13.0 mph NNW20.9 kmh NNW 16.8 mph27.0 kmh 29.78 in1008.5 mb 0.00 in0.0 mm 0.00 in0.0 mm 0.00 in0.0 mm
10:15 AM 34.7°F1.5°C 24.1°F-4.4°C 65% 13.0 mph N20.9 kmh N 18.3 mph29.5 kmh 29.78 in1008.5 mb 0.00 in0.0 mm 0.00 in0.0 mm 0.00 in0.0 mm
10:30 AM 34.9°F1.6°C 24.3°F-4.3°C 65% 7.6 mph NNW12.2 kmh NNW 14.5 mph23.3 kmh 29.78 in1008.5 mb 0.00 in0.0 mm 0.00 in0.0 mm 0.00 in0.0 mm
10:45 AM 35.4°F1.9°C 24.4°F-4.2°C 64% 12.1 mph N19.5 kmh N 17.4 mph28.0 kmh 29.79 in1008.8 mb 0.00 in0.0 mm 0.00 in0.0 mm 0.00 in0.0 mm
11:00 AM 35.6°F2.0°C 24.6°F-4.1°C 64% 9.8 mph NNW15.8 kmh NNW 15.9 mph25.6 kmh 29.79 in1008.8 mb 0.00 in0.0 mm 0.00 in0.0 mm 0.00 in0.0 mm
11:15 AM 36.1°F2.3°C 25.1°F-3.8°C 64% 14.5 mph NNW23.3 kmh NNW 16.8 mph27.0 kmh 29.79 in1008.8 mb 0.00 in0.0 mm 0.00 in0.0 mm 0.00 in0.0 mm
11:30 AM 35.6°F2.0°C 23.9°F-4.5°C 62% 12.1 mph NNW19.5 kmh NNW 19.7 mph31.7 kmh 29.80 in1009.1 mb 0.00 in0.0 mm 0.00 in0.0 mm 0.00 in0.0 mm
11:45 AM 36.3°F2.4°C 24.5°F-4.2°C 62% 9.8 mph N15.8 kmh N 18.3 mph29.5 kmh 29.80 in1009.1 mb 0.00 in0.0 mm 0.00 in0.0 mm 0.00 in0.0 mm
12:00 PM 35.8°F2.1°C 23.6°F-4.7°C 61% 12.1 mph NNW19.5 kmh NNW 18.3 mph29.5 kmh 29.80 in1009.1 mb 0.00 in0.0 mm 0.00 in0.0 mm 0.00 in0.0 mm
12:15 PM 35.6°F2.0°C 23.1°F-4.9°C 60% 12.1 mph NW19.5 kmh NW 19.0 mph30.6 kmh 29.80 in1009.1 mb 0.00 in0.0 mm 0.00 in0.0 mm 0.00 in0.0 mm
12:30 PM 35.6°F2.0°C 23.1°F-4.9°C 60% 13.0 mph N20.9 kmh N 15.9 mph25.6 kmh 29.80 in1009.1 mb 0.00 in0.0 mm 0.00 in0.0 mm 0.00 in0.0 mm
12:45 PM 36.0°F2.2°C 22.2°F-5.4°C 57% 9.2 mph N14.8 kmh N 20.6 mph33.2 kmh 29.80 in1009.1 mb 0.00 in0.0 mm 0.00 in0.0 mm 0.00 in0.0 mm
01:00 PM 36.1°F2.3°C 20.6°F-6.3°C 53% 17.4 mph NNW28.0 kmh NNW 20.6 mph33.2 kmh 29.80 in1009.1 mb 0.00 in0.0 mm 0.00 in0.0 mm 0.00 in0.0 mm
01:15 PM 36.9°F2.7°C 20.4°F-6.4°C 51% 11.4 mph NNW18.3 kmh NNW 22.1 mph35.6 kmh 29.80 in1009.1 mb 0.00 in0.0 mm 0.00 in0.0 mm 0.00 in0.0 mm
01:30 PM 36.1°F2.3°C 19.7°F-6.8°C 51% 10.7 mph N17.2 kmh N 19.7 mph31.7 kmh 29.80 in1009.1 mb 0.00 in0.0 mm 0.00 in0.0 mm 0.00 in0.0 mm
01:45 PM 36.3°F2.4°C 20.4°F-6.4°C 52% 10.7 mph NNW17.2 kmh NNW 19.7 mph31.7 kmh 29.80 in1009.1 mb 0.00 in0.0 mm 0.00 in0.0 mm 0.00 in0.0 mm
02:00 PM 37.4°F3.0°C 21.4°F-5.9°C 52% 9.2 mph NW14.8 kmh NW 17.4 mph28.0 kmh 29.80 in1009.1 mb 0.00 in0.0 mm 0.00 in0.0 mm 0.00 in0.0 mm
02:15 PM 37.8°F3.2°C 22.1°F-5.5°C 53% 8.3 mph NNW13.4 kmh NNW 11.4 mph18.3 kmh 29.80 in1009.1 mb 0.00 in0.0 mm 0.00 in0.0 mm 0.00 in0.0 mm
02:30 PM 36.5°F2.5°C 20.1°F-6.6°C 51% 10.7 mph N17.2 kmh N 19.7 mph31.7 kmh 29.80 in1009.1 mb 0.00 in0.0 mm 0.00 in0.0 mm 0.00 in0.0 mm
02:45 PM 35.8°F2.1°C 20.3°F-6.5°C 53% 9.2 mph N14.8 kmh N 13.6 mph21.9 kmh 29.80 in1009.1 mb 0.00 in0.0 mm 0.00 in0.0 mm 0.00 in0.0 mm
03:00 PM 35.8°F2.1°C 20.7°F-6.3°C 54% 9.2 mph N14.8 kmh N 11.4 mph18.3 kmh 29.80 in1009.1 mb 0.00 in0.0 mm 0.00 in0.0 mm 0.00 in0.0 mm
03:15 PM 35.4°F1.9°C 21.3°F-5.9°C 56% 6.0 mph NNW9.7 kmh NNW 14.5 mph23.3 kmh 29.81 in1009.5 mb 0.00 in0.0 mm 0.00 in0.0 mm 0.00 in0.0 mm
03:30 PM 35.1°F1.7°C 22.2°F-5.4°C 59% 4.5 mph NNW7.2 kmh NNW 10.7 mph17.2 kmh 29.80 in1009.1 mb 0.00 in0.0 mm 0.00 in0.0 mm 0.00 in0.0 mm
03:45 PM 34.7°F1.5°C 22.2°F-5.4°C 60% 3.8 mph NW6.1 kmh NW 9.2 mph14.8 kmh 29.80 in1009.1 mb 0.00 in0.0 mm 0.00 in0.0 mm 0.00 in0.0 mm
04:00 PM 34.2°F1.2°C 22.1°F-5.5°C 61% 3.1 mph NW5.0 kmh NW 5.4 mph8.7 kmh 29.81 in1009.5 mb 0.00 in0.0 mm 0.00 in0.0 mm 0.00 in0.0 mm
04:15 PM 33.8°F1.0°C 21.8°F-5.7°C 61% 2.2 mph NNW3.5 kmh NNW 7.6 mph12.2 kmh 29.81 in1009.5 mb 0.00 in0.0 mm 0.00 in0.0 mm 0.00 in0.0 mm
04:30 PM 33.3°F0.7°C 21.6°F-5.8°C 62% 3.1 mph W5.0 kmh W 4.5 mph7.2 kmh 29.80 in1009.1 mb 0.00 in0.0 mm 0.00 in0.0 mm 0.00 in0.0 mm
04:45 PM 32.9°F0.5°C 21.3°F-5.9°C 62% 3.8 mph NW6.1 kmh NW 5.4 mph8.7 kmh 29.81 in1009.5 mb 0.00 in0.0 mm 0.00 in0.0 mm 0.00 in0.0 mm
05:00 PM 32.5°F0.3°C 21.3°F-5.9°C 63% 3.8 mph NW6.1 kmh NW 6.0 mph9.7 kmh 29.82 in1009.8 mb 0.00 in0.0 mm 0.00 in0.0 mm 0.00 in0.0 mm
05:15 PM 32.2°F0.1°C 21.0°F-6.1°C 63% 2.2 mph N3.5 kmh N 4.5 mph7.2 kmh 29.81 in1009.5 mb 0.00 in0.0 mm 0.00 in0.0 mm 0.00 in0.0 mm
05:30 PM 31.8°F-0.1°C 21.0°F-6.1°C 64% 2.2 mph NNW3.5 kmh NNW 3.8 mph6.1 kmh 29.81 in1009.5 mb 0.00 in0.0 mm 0.00 in0.0 mm 0.00 in0.0 mm
05:45 PM 31.8°F-0.1°C 21.4°F-5.9°C 65% 0.7 mph N1.1 kmh N 3.8 mph6.1 kmh 29.82 in1009.8 mb 0.00 in0.0 mm 0.00 in0.0 mm 0.00 in0.0 mm
06:00 PM 31.8°F-0.1°C 21.7°F-5.7°C 66% 1.6 mph N2.6 kmh N 3.1 mph5.0 kmh 29.83 in1010.2 mb 0.00 in0.0 mm 0.00 in0.0 mm 0.00 in0.0 mm
06:15 PM 32.0°F0.0°C 21.9°F-5.6°C 66% 0.7 mph N1.1 kmh N 3.1 mph5.0 kmh 29.82 in1009.8 mb 0.00 in0.0 mm 0.00 in0.0 mm 0.00 in0.0 mm
06:30 PM 32.2°F0.1°C 22.4°F-5.3°C 67% 2.2 mph NNW3.5 kmh NNW 3.1 mph5.0 kmh 29.83 in1010.2 mb 0.00 in0.0 mm 0.00 in0.0 mm 0.00 in0.0 mm
06:45 PM 32.2°F0.1°C 22.4°F-5.3°C 67% 1.6 mph W2.6 kmh W 3.1 mph5.0 kmh 29.82 in1009.8 mb 0.00 in0.0 mm 0.00 in0.0 mm 0.00 in0.0 mm
07:00 PM 32.4°F0.2°C 22.6°F-5.2°C 67% 2.2 mph WSW3.5 kmh WSW 3.8 mph6.1 kmh 29.83 in1010.2 mb 0.00 in0.0 mm 0.00 in0.0 mm 0.00 in0.0 mm
07:15 PM 32.5°F0.3°C 22.8°F-5.1°C 67% 1.6 mph W2.6 kmh W 3.8 mph6.1 kmh 29.82 in1009.8 mb 0.00 in0.0 mm 0.00 in0.0 mm 0.00 in0.0 mm
07:30 PM 32.7°F0.4°C 23.0°F-5.0°C 67% 2.2 mph WNW3.5 kmh WNW 3.8 mph6.1 kmh 29.83 in1010.2 mb 0.00 in0.0 mm 0.00 in0.0 mm 0.00 in0.0 mm
07:45 PM 32.7°F0.4°C 23.0°F-5.0°C 67% 1.6 mph NW2.6 kmh NW 4.5 mph7.2 kmh 29.82 in1009.8 mb 0.00 in0.0 mm 0.00 in0.0 mm 0.00 in0.0 mm
08:00 PM 32.7°F0.4°C 23.0°F-5.0°C 67% 1.6 mph NW2.6 kmh NW 3.8 mph6.1 kmh 29.83 in1010.2 mb 0.00 in0.0 mm 0.00 in0.0 mm 0.00 in0.0 mm
08:15 PM 32.7°F0.4°C 23.0°F-5.0°C 67% 1.6 mph WNW2.6 kmh WNW 3.8 mph6.1 kmh 29.82 in1009.8 mb 0.00 in0.0 mm 0.00 in0.0 mm 0.00 in0.0 mm
08:30 PM 32.7°F0.4°C 23.3°F-4.8°C 68% 2.2 mph WSW3.5 kmh WSW 3.8 mph6.1 kmh 29.82 in1009.8 mb 0.00 in0.0 mm 0.00 in0.0 mm 0.00 in0.0 mm
08:45 PM 32.7°F0.4°C 23.3°F-4.8°C 68% 2.2 mph WSW3.5 kmh WSW 4.5 mph7.2 kmh 29.82 in1009.8 mb 0.00 in0.0 mm 0.00 in0.0 mm 0.00 in0.0 mm
09:00 PM 32.7°F0.4°C 23.3°F-4.8°C 68% 0.7 mph WSW1.1 kmh WSW 3.1 mph5.0 kmh 29.81 in1009.5 mb 0.00 in0.0 mm 0.00 in0.0 mm 0.00 in0.0 mm
09:15 PM 32.7°F0.4°C 23.7°F-4.6°C 69% 1.6 mph W2.6 kmh W 3.1 mph5.0 kmh 29.82 in1009.8 mb 0.00 in0.0 mm 0.00 in0.0 mm 0.00 in0.0 mm
09:30 PM 32.7°F0.4°C 23.7°F-4.6°C 69% 0.7 mph WSW1.1 kmh WSW 3.8 mph6.1 kmh 29.81 in1009.5 mb 0.00 in0.0 mm 0.00 in0.0 mm 0.00 in0.0 mm
09:45 PM 32.7°F0.4°C 24.0°F-4.4°C 70% 1.6 mph WSW2.6 kmh WSW 3.8 mph6.1 kmh 29.82 in1009.8 mb 0.00 in0.0 mm 0.00 in0.0 mm 0.00 in0.0 mm
10:00 PM 32.7°F0.4°C 24.0°F-4.4°C 70% 0.7 mph W1.1 kmh W 3.8 mph6.1 kmh 29.82 in1009.8 mb 0.00 in0.0 mm 0.00 in0.0 mm 0.00 in0.0 mm
10:15 PM 32.7°F0.4°C 24.0°F-4.4°C 70% 2.2 mph W3.5 kmh W 3.8 mph6.1 kmh 29.82 in1009.8 mb 0.00 in0.0 mm 0.00 in0.0 mm 0.00 in0.0 mm
10:30 PM 32.7°F0.4°C 24.0°F-4.4°C 70% 2.2 mph W3.5 kmh W 3.8 mph6.1 kmh 29.82 in1009.8 mb 0.00 in0.0 mm 0.00 in0.0 mm 0.00 in0.0 mm
10:45 PM 32.7°F0.4°C 24.0°F-4.4°C 70% 2.2 mph NW3.5 kmh NW 3.1 mph5.0 kmh 29.81 in1009.5 mb 0.00 in0.0 mm 0.00 in0.0 mm 0.00 in0.0 mm
11:00 PM 32.7°F0.4°C 24.0°F-4.4°C 70% 1.6 mph SW2.6 kmh SW 3.8 mph6.1 kmh 29.82 in1009.8 mb 0.00 in0.0 mm 0.00 in0.0 mm 0.00 in0.0 mm
11:15 PM 32.7°F0.4°C 24.0°F-4.4°C 70% 0.7 mph SSW1.1 kmh SSW 3.1 mph5.0 kmh 29.81 in1009.5 mb 0.00 in0.0 mm 0.00 in0.0 mm 0.00 in0.0 mm
11:30 PM 32.7°F0.4°C 24.3°F-4.3°C 71% 2.2 mph W3.5 kmh W 3.8 mph6.1 kmh 29.81 in1009.5 mb 0.00 in0.0 mm 0.00 in0.0 mm 0.00 in0.0 mm
11:45 PM 32.9°F0.5°C 24.5°F-4.2°C 71% 2.2 mph WSW3.5 kmh WSW 5.4 mph8.7 kmh 29.80 in1009.1 mb 0.00 in0.0 mm 0.00 in0.0 mm 0.00 in0.0 mm